sensor_id;sensor_type;location;lat;lon;timestamp;P1;durP1;ratioP1;P2;durP2;ratioP2
71888;SDS011;59762;49.998;14.858;2022-07-22T00:01:34;11.07;;;7.47;;
71888;SDS011;59762;49.998;14.858;2022-07-22T00:04:00;10.20;;;7.82;;
71888;SDS011;59762;49.998;14.858;2022-07-22T00:06:27;12.73;;;7.65;;
71888;SDS011;59762;49.998;14.858;2022-07-22T00:08:54;10.13;;;7.22;;
71888;SDS011;59762;49.998;14.858;2022-07-22T00:11:20;11.52;;;7.35;;
71888;SDS011;59762;49.998;14.858;2022-07-22T00:13:46;12.25;;;7.50;;
71888;SDS011;59762;49.998;14.858;2022-07-22T00:16:12;9.73;;;7.72;;
71888;SDS011;59762;49.998;14.858;2022-07-22T00:18:37;12.60;;;8.90;;
71888;SDS011;59762;49.998;14.858;2022-07-22T00:21:03;13.57;;;8.07;;
71888;SDS011;59762;49.998;14.858;2022-07-22T00:23:29;10.02;;;7.53;;
71888;SDS011;59762;49.998;14.858;2022-07-22T00:25:55;11.27;;;7.70;;
71888;SDS011;59762;49.998;14.858;2022-07-22T00:28:21;10.20;;;7.55;;
71888;SDS011;59762;49.998;14.858;2022-07-22T00:30:47;9.63;;;7.35;;
71888;SDS011;59762;49.998;14.858;2022-07-22T00:33:12;10.90;;;7.32;;
71888;SDS011;59762;49.998;14.858;2022-07-22T00:35:38;12.38;;;7.82;;
71888;SDS011;59762;49.998;14.858;2022-07-22T00:38:04;11.23;;;7.68;;
71888;SDS011;59762;49.998;14.858;2022-07-22T00:40:29;12.75;;;8.95;;
71888;SDS011;59762;49.998;14.858;2022-07-22T00:42:55;10.82;;;8.52;;
71888;SDS011;59762;49.998;14.858;2022-07-22T00:45:21;9.60;;;8.13;;
71888;SDS011;59762;49.998;14.858;2022-07-22T00:47:46;10.05;;;7.70;;
71888;SDS011;59762;49.998;14.858;2022-07-22T00:50:12;10.57;;;8.32;;
71888;SDS011;59762;49.998;14.858;2022-07-22T00:52:40;11.73;;;7.90;;
71888;SDS011;59762;49.998;14.858;2022-07-22T00:55:07;10.35;;;7.97;;
71888;SDS011;59762;49.998;14.858;2022-07-22T00:57:33;12.40;;;8.35;;
71888;SDS011;59762;49.998;14.858;2022-07-22T00:59:59;14.50;;;8.80;;
71888;SDS011;59762;49.998;14.858;2022-07-22T01:02:25;10.32;;;7.43;;
71888;SDS011;59762;49.998;14.858;2022-07-22T01:04:51;10.25;;;7.82;;
71888;SDS011;59762;49.998;14.858;2022-07-22T01:07:17;12.52;;;7.63;;
71888;SDS011;59762;49.998;14.858;2022-07-22T01:09:43;10.30;;;7.85;;
71888;SDS011;59762;49.998;14.858;2022-07-22T01:12:09;12.38;;;8.23;;
71888;SDS011;59762;49.998;14.858;2022-07-22T01:14:36;11.05;;;8.52;;
71888;SDS011;59762;49.998;14.858;2022-07-22T01:17:02;10.05;;;7.75;;
71888;SDS011;59762;49.998;14.858;2022-07-22T01:19:28;14.07;;;8.25;;
71888;SDS011;59762;49.998;14.858;2022-07-22T01:21:54;13.88;;;8.02;;
71888;SDS011;59762;49.998;14.858;2022-07-22T01:24:20;11.75;;;8.48;;
71888;SDS011;59762;49.998;14.858;2022-07-22T01:26:46;13.88;;;8.60;;
71888;SDS011;59762;49.998;14.858;2022-07-22T01:29:11;12.20;;;8.77;;
71888;SDS011;59762;49.998;14.858;2022-07-22T01:31:37;11.30;;;8.48;;
71888;SDS011;59762;49.998;14.858;2022-07-22T01:34:03;11.57;;;8.45;;
71888;SDS011;59762;49.998;14.858;2022-07-22T01:36:28;11.68;;;8.82;;
71888;SDS011;59762;49.998;14.858;2022-07-22T01:38:54;14.43;;;8.70;;
71888;SDS011;59762;49.998;14.858;2022-07-22T01:41:20;13.60;;;8.77;;
71888;SDS011;59762;49.998;14.858;2022-07-22T01:43:46;10.65;;;8.45;;
71888;SDS011;59762;49.998;14.858;2022-07-22T01:46:12;12.23;;;8.60;;
71888;SDS011;59762;49.998;14.858;2022-07-22T01:48:38;11.80;;;7.95;;
71888;SDS011;59762;49.998;14.858;2022-07-22T01:51:04;14.10;;;8.55;;
71888;SDS011;59762;49.998;14.858;2022-07-22T01:53:30;14.68;;;8.88;;
71888;SDS011;59762;49.998;14.858;2022-07-22T01:55:55;12.00;;;8.13;;
71888;SDS011;59762;49.998;14.858;2022-07-22T01:58:21;12.77;;;8.68;;
71888;SDS011;59762;49.998;14.858;2022-07-22T02:00:47;14.02;;;8.75;;
71888;SDS011;59762;49.998;14.858;2022-07-22T02:03:13;13.88;;;9.35;;
71888;SDS011;59762;49.998;14.858;2022-07-22T02:05:38;13.70;;;9.05;;
71888;SDS011;59762;49.998;14.858;2022-07-22T02:08:05;13.07;;;8.20;;
71888;SDS011;59762;49.998;14.858;2022-07-22T02:10:33;12.80;;;9.20;;
71888;SDS011;59762;49.998;14.858;2022-07-22T02:13:00;9.90;;;7.97;;
71888;SDS011;59762;49.998;14.858;2022-07-22T02:15:26;13.30;;;9.10;;
71888;SDS011;59762;49.998;14.858;2022-07-22T02:17:52;11.95;;;8.68;;
71888;SDS011;59762;49.998;14.858;2022-07-22T02:20:19;11.13;;;8.45;;
71888;SDS011;59762;49.998;14.858;2022-07-22T02:22:45;11.57;;;7.93;;
71888;SDS011;59762;49.998;14.858;2022-07-22T02:25:11;12.68;;;8.82;;
71888;SDS011;59762;49.998;14.858;2022-07-22T02:27:37;12.52;;;8.43;;
71888;SDS011;59762;49.998;14.858;2022-07-22T02:30:04;10.93;;;8.15;;
71888;SDS011;59762;49.998;14.858;2022-07-22T02:32:30;12.82;;;8.77;;
71888;SDS011;59762;49.998;14.858;2022-07-22T02:34:57;14.32;;;8.85;;
71888;SDS011;59762;49.998;14.858;2022-07-22T02:37:22;11.70;;;8.32;;
71888;SDS011;59762;49.998;14.858;2022-07-22T02:39:48;11.23;;;8.15;;
71888;SDS011;59762;49.998;14.858;2022-07-22T02:42:14;10.80;;;8.70;;
71888;SDS011;59762;49.998;14.858;2022-07-22T02:44:40;12.52;;;9.23;;
71888;SDS011;59762;49.998;14.858;2022-07-22T02:47:05;12.23;;;8.52;;
71888;SDS011;59762;49.998;14.858;2022-07-22T02:49:31;11.00;;;8.68;;
71888;SDS011;59762;49.998;14.858;2022-07-22T02:51:57;11.55;;;8.68;;
71888;SDS011;59762;49.998;14.858;2022-07-22T02:54:22;11.95;;;8.45;;
71888;SDS011;59762;49.998;14.858;2022-07-22T02:56:48;12.05;;;8.68;;
71888;SDS011;59762;49.998;14.858;2022-07-22T02:59:14;15.10;;;8.30;;
71888;SDS011;59762;49.998;14.858;2022-07-22T03:01:39;12.40;;;8.82;;
71888;SDS011;59762;49.998;14.858;2022-07-22T03:04:05;12.02;;;8.85;;
71888;SDS011;59762;49.998;14.858;2022-07-22T03:06:31;13.00;;;8.98;;
71888;SDS011;59762;49.998;14.858;2022-07-22T03:08:57;11.45;;;8.48;;
71888;SDS011;59762;49.998;14.858;2022-07-22T03:11:22;11.65;;;8.25;;
71888;SDS011;59762;49.998;14.858;2022-07-22T03:13:48;12.40;;;8.82;;
71888;SDS011;59762;49.998;14.858;2022-07-22T03:16:14;14.63;;;8.70;;
71888;SDS011;59762;49.998;14.858;2022-07-22T03:18:39;10.75;;;8.52;;
71888;SDS011;59762;49.998;14.858;2022-07-22T03:21:05;11.32;;;8.52;;
71888;SDS011;59762;49.998;14.858;2022-07-22T03:23:31;10.85;;;7.90;;
71888;SDS011;59762;49.998;14.858;2022-07-22T03:25:56;13.75;;;8.35;;
71888;SDS011;59762;49.998;14.858;2022-07-22T03:28:22;11.95;;;8.40;;
71888;SDS011;59762;49.998;14.858;2022-07-22T03:30:48;14.60;;;9.23;;
71888;SDS011;59762;49.998;14.858;2022-07-22T03:33:14;11.68;;;8.80;;
71888;SDS011;59762;49.998;14.858;2022-07-22T03:35:40;14.48;;;8.90;;
71888;SDS011;59762;49.998;14.858;2022-07-22T03:38:06;14.90;;;8.68;;
71888;SDS011;59762;49.998;14.858;2022-07-22T03:40:31;12.73;;;8.15;;
71888;SDS011;59762;49.998;14.858;2022-07-22T03:42:57;11.60;;;8.50;;
71888;SDS011;59762;49.998;14.858;2022-07-22T03:45:23;13.32;;;8.57;;
71888;SDS011;59762;49.998;14.858;2022-07-22T03:47:48;13.88;;;8.93;;
71888;SDS011;59762;49.998;14.858;2022-07-22T03:50:14;14.02;;;8.80;;
71888;SDS011;59762;49.998;14.858;2022-07-22T03:52:39;12.45;;;9.25;;
71888;SDS011;59762;49.998;14.858;2022-07-22T03:55:05;12.40;;;7.97;;
71888;SDS011;59762;49.998;14.858;2022-07-22T03:57:32;12.10;;;8.43;;
71888;SDS011;59762;49.998;14.858;2022-07-22T03:59:57;11.63;;;8.35;;
71888;SDS011;59762;49.998;14.858;2022-07-22T04:02:23;14.77;;;8.20;;
71888;SDS011;59762;49.998;14.858;2022-07-22T04:04:49;9.48;;;8.23;;
71888;SDS011;59762;49.998;14.858;2022-07-22T04:07:14;15.02;;;8.07;;
71888;SDS011;59762;49.998;14.858;2022-07-22T04:09:40;10.00;;;8.25;;
71888;SDS011;59762;49.998;14.858;2022-07-22T04:12:06;13.05;;;8.05;;
71888;SDS011;59762;49.998;14.858;2022-07-22T04:14:32;12.60;;;8.07;;
71888;SDS011;59762;49.998;14.858;2022-07-22T04:16:58;10.32;;;8.20;;
71888;SDS011;59762;49.998;14.858;2022-07-22T04:19:23;10.02;;;7.93;;
71888;SDS011;59762;49.998;14.858;2022-07-22T04:21:49;9.90;;;8.00;;
71888;SDS011;59762;49.998;14.858;2022-07-22T04:24:14;11.15;;;8.48;;
71888;SDS011;59762;49.998;14.858;2022-07-22T04:26:40;10.13;;;7.93;;
71888;SDS011;59762;49.998;14.858;2022-07-22T04:29:06;10.70;;;8.23;;
71888;SDS011;59762;49.998;14.858;2022-07-22T04:31:31;9.13;;;7.60;;
71888;SDS011;59762;49.998;14.858;2022-07-22T04:33:58;9.40;;;7.70;;
71888;SDS011;59762;49.998;14.858;2022-07-22T04:36:24;11.23;;;8.27;;
71888;SDS011;59762;49.998;14.858;2022-07-22T04:38:50;9.48;;;7.35;;
71888;SDS011;59762;49.998;14.858;2022-07-22T04:41:16;10.23;;;7.50;;
71888;SDS011;59762;49.998;14.858;2022-07-22T04:43:42;9.55;;;7.97;;
71888;SDS011;59762;49.998;14.858;2022-07-22T04:46:08;10.93;;;7.63;;
71888;SDS011;59762;49.998;14.858;2022-07-22T04:48:34;10.75;;;7.50;;
71888;SDS011;59762;49.998;14.858;2022-07-22T04:51:00;10.43;;;7.65;;
71888;SDS011;59762;49.998;14.858;2022-07-22T04:53:27;9.77;;;7.82;;
71888;SDS011;59762;49.998;14.858;2022-07-22T04:55:53;9.65;;;7.15;;
71888;SDS011;59762;49.998;14.858;2022-07-22T04:58:19;9.43;;;7.97;;
71888;SDS011;59762;49.998;14.858;2022-07-22T05:00:45;9.48;;;7.78;;
71888;SDS011;59762;49.998;14.858;2022-07-22T05:03:12;9.45;;;7.40;;
71888;SDS011;59762;49.998;14.858;2022-07-22T05:05:38;10.60;;;7.78;;
71888;SDS011;59762;49.998;14.858;2022-07-22T05:08:04;11.90;;;7.40;;
71888;SDS011;59762;49.998;14.858;2022-07-22T05:10:30;12.95;;;7.93;;
71888;SDS011;59762;49.998;14.858;2022-07-22T05:12:58;11.55;;;7.68;;
71888;SDS011;59762;49.998;14.858;2022-07-22T05:15:24;7.80;;;7.00;;
71888;SDS011;59762;49.998;14.858;2022-07-22T05:17:50;12.80;;;8.05;;
71888;SDS011;59762;49.998;14.858;2022-07-22T05:20:15;9.43;;;7.32;;
71888;SDS011;59762;49.998;14.858;2022-07-22T05:22:41;9.75;;;7.60;;
71888;SDS011;59762;49.998;14.858;2022-07-22T05:25:07;8.02;;;6.88;;
71888;SDS011;59762;49.998;14.858;2022-07-22T05:27:33;9.63;;;7.13;;
71888;SDS011;59762;49.998;14.858;2022-07-22T05:29:59;9.40;;;7.90;;
71888;SDS011;59762;49.998;14.858;2022-07-22T05:32:24;11.30;;;7.50;;
71888;SDS011;59762;49.998;14.858;2022-07-22T05:34:50;8.27;;;6.88;;
71888;SDS011;59762;49.998;14.858;2022-07-22T05:37:16;7.80;;;6.40;;
71888;SDS011;59762;49.998;14.858;2022-07-22T05:39:42;11.02;;;7.15;;
71888;SDS011;59762;49.998;14.858;2022-07-22T05:42:08;11.68;;;6.72;;
71888;SDS011;59762;49.998;14.858;2022-07-22T05:44:34;9.07;;;7.07;;
71888;SDS011;59762;49.998;14.858;2022-07-22T05:47:00;9.00;;;7.05;;
71888;SDS011;59762;49.998;14.858;2022-07-22T05:49:25;7.97;;;6.65;;
71888;SDS011;59762;49.998;14.858;2022-07-22T05:51:52;9.32;;;7.43;;
71888;SDS011;59762;49.998;14.858;2022-07-22T05:54:18;7.80;;;6.32;;
71888;SDS011;59762;49.998;14.858;2022-07-22T05:56:45;8.23;;;6.57;;
71888;SDS011;59762;49.998;14.858;2022-07-22T05:59:10;11.75;;;6.88;;
71888;SDS011;59762;49.998;14.858;2022-07-22T06:01:36;8.98;;;6.47;;
71888;SDS011;59762;49.998;14.858;2022-07-22T06:04:02;8.00;;;7.00;;
71888;SDS011;59762;49.998;14.858;2022-07-22T06:06:28;10.27;;;7.07;;
71888;SDS011;59762;49.998;14.858;2022-07-22T06:08:53;11.07;;;7.00;;
71888;SDS011;59762;49.998;14.858;2022-07-22T06:11:19;7.82;;;6.70;;
71888;SDS011;59762;49.998;14.858;2022-07-22T06:13:45;10.48;;;7.10;;
71888;SDS011;59762;49.998;14.858;2022-07-22T06:16:10;7.65;;;6.88;;
71888;SDS011;59762;49.998;14.858;2022-07-22T06:18:37;7.50;;;6.70;;
71888;SDS011;59762;49.998;14.858;2022-07-22T06:21:03;8.10;;;6.50;;
71888;SDS011;59762;49.998;14.858;2022-07-22T06:23:29;8.40;;;7.13;;
71888;SDS011;59762;49.998;14.858;2022-07-22T06:25:55;7.50;;;6.72;;
71888;SDS011;59762;49.998;14.858;2022-07-22T06:28:20;7.50;;;6.40;;
71888;SDS011;59762;49.998;14.858;2022-07-22T06:30:46;8.00;;;6.53;;
71888;SDS011;59762;49.998;14.858;2022-07-22T06:33:12;8.82;;;6.40;;
71888;SDS011;59762;49.998;14.858;2022-07-22T06:35:38;7.55;;;6.32;;
71888;SDS011;59762;49.998;14.858;2022-07-22T06:38:08;8.70;;;7.20;;
71888;SDS011;59762;49.998;14.858;2022-07-22T06:40:34;10.57;;;7.38;;
71888;SDS011;59762;49.998;14.858;2022-07-22T06:43:00;9.45;;;6.60;;
71888;SDS011;59762;49.998;14.858;2022-07-22T06:45:26;7.80;;;6.78;;
71888;SDS011;59762;49.998;14.858;2022-07-22T06:47:52;7.55;;;6.45;;
71888;SDS011;59762;49.998;14.858;2022-07-22T06:50:18;6.88;;;5.93;;
71888;SDS011;59762;49.998;14.858;2022-07-22T06:52:43;7.35;;;6.55;;
71888;SDS011;59762;49.998;14.858;2022-07-22T06:55:09;9.30;;;6.57;;
71888;SDS011;59762;49.998;14.858;2022-07-22T06:57:35;8.43;;;6.53;;
71888;SDS011;59762;49.998;14.858;2022-07-22T07:00:03;8.32;;;7.15;;
71888;SDS011;59762;49.998;14.858;2022-07-22T07:02:29;9.00;;;6.55;;
71888;SDS011;59762;49.998;14.858;2022-07-22T07:04:55;10.20;;;6.38;;
71888;SDS011;59762;49.998;14.858;2022-07-22T07:07:21;12.13;;;6.82;;
71888;SDS011;59762;49.998;14.858;2022-07-22T07:09:46;9.02;;;7.00;;
71888;SDS011;59762;49.998;14.858;2022-07-22T07:12:12;9.23;;;6.43;;
71888;SDS011;59762;49.998;14.858;2022-07-22T07:14:38;9.48;;;6.85;;
71888;SDS011;59762;49.998;14.858;2022-07-22T07:17:03;9.43;;;6.70;;
71888;SDS011;59762;49.998;14.858;2022-07-22T07:19:29;9.77;;;7.22;;
71888;SDS011;59762;49.998;14.858;2022-07-22T07:21:55;9.90;;;6.38;;
71888;SDS011;59762;49.998;14.858;2022-07-22T07:24:20;9.10;;;6.82;;
71888;SDS011;59762;49.998;14.858;2022-07-22T07:26:46;8.57;;;7.22;;
71888;SDS011;59762;49.998;14.858;2022-07-22T07:29:12;12.52;;;7.72;;
71888;SDS011;59762;49.998;14.858;2022-07-22T07:31:37;9.32;;;7.63;;
71888;SDS011;59762;49.998;14.858;2022-07-22T07:34:03;7.00;;;6.15;;
71888;SDS011;59762;49.998;14.858;2022-07-22T07:36:29;10.60;;;7.50;;
71888;SDS011;59762;49.998;14.858;2022-07-22T07:38:54;10.55;;;7.30;;
71888;SDS011;59762;49.998;14.858;2022-07-22T07:41:20;9.32;;;6.70;;
71888;SDS011;59762;49.998;14.858;2022-07-22T07:43:46;8.57;;;6.65;;
71888;SDS011;59762;49.998;14.858;2022-07-22T07:46:12;10.82;;;7.07;;
71888;SDS011;59762;49.998;14.858;2022-07-22T07:48:38;7.13;;;6.35;;
71888;SDS011;59762;49.998;14.858;2022-07-22T07:51:04;8.80;;;6.63;;
71888;SDS011;59762;49.998;14.858;2022-07-22T07:53:30;8.48;;;7.55;;
71888;SDS011;59762;49.998;14.858;2022-07-22T07:55:56;8.15;;;6.82;;
71888;SDS011;59762;49.998;14.858;2022-07-22T07:58:22;9.70;;;7.47;;
71888;SDS011;59762;49.998;14.858;2022-07-22T08:00:47;7.82;;;7.03;;
71888;SDS011;59762;49.998;14.858;2022-07-22T08:03:13;9.55;;;7.38;;
71888;SDS011;59762;49.998;14.858;2022-07-22T08:05:39;9.48;;;7.35;;
71888;SDS011;59762;49.998;14.858;2022-07-22T08:08:05;11.05;;;6.78;;
71888;SDS011;59762;49.998;14.858;2022-07-22T08:10:32;9.07;;;7.20;;
71888;SDS011;59762;49.998;14.858;2022-07-22T08:12:58;7.80;;;6.93;;
71888;SDS011;59762;49.998;14.858;2022-07-22T08:15:27;9.43;;;7.35;;
71888;SDS011;59762;49.998;14.858;2022-07-22T08:17:53;9.20;;;6.97;;
71888;SDS011;59762;49.998;14.858;2022-07-22T08:20:20;8.75;;;6.55;;
71888;SDS011;59762;49.998;14.858;2022-07-22T08:22:46;8.45;;;5.20;;
71888;SDS011;59762;49.998;14.858;2022-07-22T08:25:12;7.32;;;5.53;;
71888;SDS011;59762;49.998;14.858;2022-07-22T08:27:37;7.82;;;5.95;;
71888;SDS011;59762;49.998;14.858;2022-07-22T08:30:04;7.68;;;5.82;;
71888;SDS011;59762;49.998;14.858;2022-07-22T08:32:31;5.93;;;4.55;;
71888;SDS011;59762;49.998;14.858;2022-07-22T08:34:58;7.32;;;4.90;;
71888;SDS011;59762;49.998;14.858;2022-07-22T08:37:23;8.48;;;5.78;;
71888;SDS011;59762;49.998;14.858;2022-07-22T08:39:49;6.75;;;4.82;;
71888;SDS011;59762;49.998;14.858;2022-07-22T08:42:15;7.63;;;5.47;;
71888;SDS011;59762;49.998;14.858;2022-07-22T08:44:41;7.80;;;5.20;;
71888;SDS011;59762;49.998;14.858;2022-07-22T08:47:06;8.38;;;5.20;;
71888;SDS011;59762;49.998;14.858;2022-07-22T08:49:32;7.22;;;5.38;;
71888;SDS011;59762;49.998;14.858;2022-07-22T08:51:58;6.57;;;5.47;;
71888;SDS011;59762;49.998;14.858;2022-07-22T08:54:24;10.95;;;5.68;;
71888;SDS011;59762;49.998;14.858;2022-07-22T08:56:50;7.28;;;5.40;;
71888;SDS011;59762;49.998;14.858;2022-07-22T08:59:17;7.97;;;5.43;;
71888;SDS011;59762;49.998;14.858;2022-07-22T09:02:25;7.00;;;5.50;;
71888;SDS011;59762;49.998;14.858;2022-07-22T09:09:53;7.38;;;5.70;;
71888;SDS011;59762;49.998;14.858;2022-07-22T09:12:18;8.23;;;5.80;;
71888;SDS011;59762;49.998;14.858;2022-07-22T09:14:45;9.98;;;5.93;;
71888;SDS011;59762;49.998;14.858;2022-07-22T09:17:25;6.72;;;5.53;;
71888;SDS011;59762;49.998;14.858;2022-07-22T09:19:54;11.40;;;5.95;;
71888;SDS011;59762;49.998;14.858;2022-07-22T09:25:35;10.73;;;6.97;;
71888;SDS011;59762;49.998;14.858;2022-07-22T09:30:36;7.55;;;5.75;;
71888;SDS011;59762;49.998;14.858;2022-07-22T09:33:04;8.93;;;6.03;;
71888;SDS011;59762;49.998;14.858;2022-07-22T09:35:30;7.25;;;6.00;;
71888;SDS011;59762;49.998;14.858;2022-07-22T09:38:03;8.73;;;6.30;;
71888;SDS011;59762;49.998;14.858;2022-07-22T09:40:31;6.95;;;5.88;;
71888;SDS011;59762;49.998;14.858;2022-07-22T09:43:00;8.68;;;6.18;;
71888;SDS011;59762;49.998;14.858;2022-07-22T09:45:28;7.30;;;6.10;;
71888;SDS011;59762;49.998;14.858;2022-07-22T09:47:56;8.43;;;7.10;;
71888;SDS011;59762;49.998;14.858;2022-07-22T09:50:25;9.00;;;6.72;;
71888;SDS011;59762;49.998;14.858;2022-07-22T09:52:51;8.63;;;6.25;;
71888;SDS011;59762;49.998;14.858;2022-07-22T09:55:19;6.18;;;5.57;;
71888;SDS011;59762;49.998;14.858;2022-07-22T09:57:47;8.60;;;5.47;;
71888;SDS011;59762;49.998;14.858;2022-07-22T10:00:15;6.40;;;4.95;;
71888;SDS011;59762;49.998;14.858;2022-07-22T10:05:22;8.98;;;5.25;;
71888;SDS011;59762;49.998;14.858;2022-07-22T10:07:50;7.22;;;5.40;;
71888;SDS011;59762;49.998;14.858;2022-07-22T10:10:18;6.00;;;4.72;;
71888;SDS011;59762;49.998;14.858;2022-07-22T10:12:50;6.50;;;4.93;;
71888;SDS011;59762;49.998;14.858;2022-07-22T10:15:17;7.10;;;5.32;;
71888;SDS011;59762;49.998;14.858;2022-07-22T10:17:47;6.43;;;4.93;;
71888;SDS011;59762;49.998;14.858;2022-07-22T10:20:20;6.90;;;5.35;;
71888;SDS011;59762;49.998;14.858;2022-07-22T10:22:48;6.15;;;5.32;;
71888;SDS011;59762;49.998;14.858;2022-07-22T10:25:16;7.63;;;5.90;;
71888;SDS011;59762;49.998;14.858;2022-07-22T10:30:30;5.75;;;4.78;;
71888;SDS011;59762;49.998;14.858;2022-07-22T10:38:10;8.85;;;5.60;;
71888;SDS011;59762;49.998;14.858;2022-07-22T10:40:48;9.23;;;5.40;;
71888;SDS011;59762;49.998;14.858;2022-07-22T10:43:23;7.55;;;5.40;;
71888;SDS011;59762;49.998;14.858;2022-07-22T10:46:00;6.32;;;5.22;;
71888;SDS011;59762;49.998;14.858;2022-07-22T10:54:13;8.02;;;5.00;;
71888;SDS011;59762;49.998;14.858;2022-07-22T10:58:56;7.07;;;5.60;;
71888;SDS011;59762;49.998;14.858;2022-07-22T11:01:24;6.45;;;5.35;;
71888;SDS011;59762;49.998;14.858;2022-07-22T11:03:55;7.10;;;5.28;;
71888;SDS011;59762;49.998;14.858;2022-07-22T11:06:22;5.53;;;4.45;;
71888;SDS011;59762;49.998;14.858;2022-07-22T11:08:52;6.43;;;5.28;;
71888;SDS011;59762;49.998;14.858;2022-07-22T11:12:02;6.90;;;5.63;;
71888;SDS011;59762;49.998;14.858;2022-07-22T11:14:14;13.50;;;5.75;;
71888;SDS011;59762;49.998;14.858;2022-07-22T11:16:59;6.95;;;5.35;;
71888;SDS011;59762;49.998;14.858;2022-07-22T11:19:33;9.63;;;5.10;;
71888;SDS011;59762;49.998;14.858;2022-07-22T11:22:06;6.45;;;5.60;;
71888;SDS011;59762;49.998;14.858;2022-07-22T11:24:36;8.35;;;6.25;;
71888;SDS011;59762;49.998;14.858;2022-07-22T11:27:03;8.13;;;5.22;;
71888;SDS011;59762;49.998;14.858;2022-07-22T11:29:34;12.52;;;5.75;;
71888;SDS011;59762;49.998;14.858;2022-07-22T11:32:06;6.67;;;5.60;;
71888;SDS011;59762;49.998;14.858;2022-07-22T11:34:39;6.03;;;5.15;;
71888;SDS011;59762;49.998;14.858;2022-07-22T11:37:10;6.60;;;5.10;;
71888;SDS011;59762;49.998;14.858;2022-07-22T11:39:37;9.27;;;5.88;;
71888;SDS011;59762;49.998;14.858;2022-07-22T11:42:03;8.13;;;5.90;;
71888;SDS011;59762;49.998;14.858;2022-07-22T11:44:30;8.52;;;5.82;;
71888;SDS011;59762;49.998;14.858;2022-07-22T11:46:58;5.82;;;5.25;;
71888;SDS011;59762;49.998;14.858;2022-07-22T11:49:32;7.32;;;5.95;;
71888;SDS011;59762;49.998;14.858;2022-07-22T11:51:59;6.70;;;5.75;;
71888;SDS011;59762;49.998;14.858;2022-07-22T11:54:26;8.43;;;5.57;;
71888;SDS011;59762;49.998;14.858;2022-07-22T11:56:52;9.55;;;6.28;;
71888;SDS011;59762;49.998;14.858;2022-07-22T11:59:18;7.72;;;6.07;;
71888;SDS011;59762;49.998;14.858;2022-07-22T12:01:45;9.85;;;6.05;;
71888;SDS011;59762;49.998;14.858;2022-07-22T12:04:14;11.13;;;6.88;;
71888;SDS011;59762;49.998;14.858;2022-07-22T12:06:44;7.28;;;5.60;;
71888;SDS011;59762;49.998;14.858;2022-07-22T12:09:15;6.43;;;5.20;;
71888;SDS011;59762;49.998;14.858;2022-07-22T12:11:43;7.63;;;5.82;;
71888;SDS011;59762;49.998;14.858;2022-07-22T12:14:11;7.75;;;5.65;;
71888;SDS011;59762;49.998;14.858;2022-07-22T12:16:39;6.47;;;5.55;;
71888;SDS011;59762;49.998;14.858;2022-07-22T12:19:06;7.40;;;6.28;;
71888;SDS011;59762;49.998;14.858;2022-07-22T12:21:56;6.85;;;6.10;;
71888;SDS011;59762;49.998;14.858;2022-07-22T12:24:35;6.57;;;5.55;;
71888;SDS011;59762;49.998;14.858;2022-07-22T12:27:05;7.78;;;6.10;;
71888;SDS011;59762;49.998;14.858;2022-07-22T12:32:08;6.32;;;5.70;;
71888;SDS011;59762;49.998;14.858;2022-07-22T12:34:41;9.27;;;5.88;;
71888;SDS011;59762;49.998;14.858;2022-07-22T12:42:25;6.53;;;5.88;;
71888;SDS011;59762;49.998;14.858;2022-07-22T12:44:59;7.68;;;6.03;;
71888;SDS011;59762;49.998;14.858;2022-07-22T12:47:46;8.48;;;6.07;;
71888;SDS011;59762;49.998;14.858;2022-07-22T12:50:40;6.95;;;5.65;;
71888;SDS011;59762;49.998;14.858;2022-07-22T12:53:12;9.75;;;6.10;;
71888;SDS011;59762;49.998;14.858;2022-07-22T12:58:09;6.70;;;5.63;;
71888;SDS011;59762;49.998;14.858;2022-07-22T13:00:37;7.15;;;6.20;;
71888;SDS011;59762;49.998;14.858;2022-07-22T13:03:04;8.98;;;5.55;;
71888;SDS011;59762;49.998;14.858;2022-07-22T13:05:30;6.97;;;5.60;;
71888;SDS011;59762;49.998;14.858;2022-07-22T13:07:56;6.82;;;5.32;;
71888;SDS011;59762;49.998;14.858;2022-07-22T13:10:23;7.03;;;5.40;;
71888;SDS011;59762;49.998;14.858;2022-07-22T13:12:50;7.35;;;5.93;;
71888;SDS011;59762;49.998;14.858;2022-07-22T13:15:16;6.47;;;5.05;;
71888;SDS011;59762;49.998;14.858;2022-07-22T13:17:42;6.63;;;5.93;;
71888;SDS011;59762;49.998;14.858;2022-07-22T13:20:09;8.00;;;5.72;;
71888;SDS011;59762;49.998;14.858;2022-07-22T13:22:36;6.25;;;5.60;;
71888;SDS011;59762;49.998;14.858;2022-07-22T13:25:02;7.25;;;5.50;;
71888;SDS011;59762;49.998;14.858;2022-07-22T13:27:28;5.82;;;5.25;;
71888;SDS011;59762;49.998;14.858;2022-07-22T13:29:54;6.45;;;5.78;;
71888;SDS011;59762;49.998;14.858;2022-07-22T13:32:20;9.05;;;5.07;;
71888;SDS011;59762;49.998;14.858;2022-07-22T13:34:46;7.88;;;5.18;;
71888;SDS011;59762;49.998;14.858;2022-07-22T13:37:11;7.70;;;5.30;;
71888;SDS011;59762;49.998;14.858;2022-07-22T13:39:37;6.00;;;5.38;;
71888;SDS011;59762;49.998;14.858;2022-07-22T13:42:03;7.13;;;5.50;;
71888;SDS011;59762;49.998;14.858;2022-07-22T13:44:29;7.13;;;5.70;;
71888;SDS011;59762;49.998;14.858;2022-07-22T13:46:58;7.53;;;5.82;;
71888;SDS011;59762;49.998;14.858;2022-07-22T13:49:24;7.70;;;4.85;;
71888;SDS011;59762;49.998;14.858;2022-07-22T13:51:49;5.55;;;5.00;;
71888;SDS011;59762;49.998;14.858;2022-07-22T13:54:16;5.65;;;4.60;;
71888;SDS011;59762;49.998;14.858;2022-07-22T13:56:43;5.53;;;4.53;;
71888;SDS011;59762;49.998;14.858;2022-07-22T13:59:12;5.35;;;4.55;;
71888;SDS011;59762;49.998;14.858;2022-07-22T14:01:38;6.45;;;4.90;;
71888;SDS011;59762;49.998;14.858;2022-07-22T14:04:04;7.05;;;5.07;;
71888;SDS011;59762;49.998;14.858;2022-07-22T14:06:30;5.93;;;4.93;;
71888;SDS011;59762;49.998;14.858;2022-07-22T14:08:55;7.25;;;6.10;;
71888;SDS011;59762;49.998;14.858;2022-07-22T14:11:21;6.15;;;4.90;;
71888;SDS011;59762;49.998;14.858;2022-07-22T14:13:47;7.85;;;4.93;;
71888;SDS011;59762;49.998;14.858;2022-07-22T14:16:13;5.53;;;4.95;;
71888;SDS011;59762;49.998;14.858;2022-07-22T14:21:22;7.95;;;4.93;;
71888;SDS011;59762;49.998;14.858;2022-07-22T14:23:48;6.50;;;5.10;;
71888;SDS011;59762;49.998;14.858;2022-07-22T14:26:13;8.60;;;5.05;;
71888;SDS011;59762;49.998;14.858;2022-07-22T14:28:39;6.20;;;5.22;;
71888;SDS011;59762;49.998;14.858;2022-07-22T14:31:05;5.93;;;4.97;;
71888;SDS011;59762;49.998;14.858;2022-07-22T14:33:31;5.00;;;4.43;;
71888;SDS011;59762;49.998;14.858;2022-07-22T14:35:57;5.93;;;5.25;;
71888;SDS011;59762;49.998;14.858;2022-07-22T14:38:22;9.57;;;5.38;;
71888;SDS011;59762;49.998;14.858;2022-07-22T14:40:48;7.03;;;5.50;;
71888;SDS011;59762;49.998;14.858;2022-07-22T14:43:14;6.47;;;5.18;;
71888;SDS011;59762;49.998;14.858;2022-07-22T14:45:39;7.38;;;4.95;;
71888;SDS011;59762;49.998;14.858;2022-07-22T14:48:05;6.30;;;4.72;;
71888;SDS011;59762;49.998;14.858;2022-07-22T14:50:31;6.82;;;4.72;;
71888;SDS011;59762;49.998;14.858;2022-07-22T14:52:57;5.63;;;4.00;;
71888;SDS011;59762;49.998;14.858;2022-07-22T14:55:22;6.05;;;4.63;;
71888;SDS011;59762;49.998;14.858;2022-07-22T14:57:48;6.80;;;5.10;;
71888;SDS011;59762;49.998;14.858;2022-07-22T15:00:13;6.80;;;4.60;;
71888;SDS011;59762;49.998;14.858;2022-07-22T15:02:40;6.53;;;4.95;;
71888;SDS011;59762;49.998;14.858;2022-07-22T15:05:06;5.93;;;4.55;;
71888;SDS011;59762;49.998;14.858;2022-07-22T15:07:31;5.45;;;4.60;;
71888;SDS011;59762;49.998;14.858;2022-07-22T15:09:57;5.20;;;4.70;;